Time;durP1;ratioP1;P1;durP2;ratioP2;P2;SDS_P1;SDS_P2;PMS_P1;PMS_P2;Temp;Humidity;BMP_temperature;BMP_pressure;BME280_temperature;BME280_humidity;BME280_pressure;Samples;Min_cycle;Max_cycle;Signal;HPM_P1;HPM_P2
2022/09/24 00:00:53;;;;;;;4.72;2.20;;;13.00;99.90;;;;;;5052921;28;20067;-43
2022/09/24 00:03:20;;;;;;;5.15;2.13;;;13.30;99.90;;;;;;5052741;28;20025;-44
2022/09/24 00:05:46;;;;;;;4.05;2.13;;;13.30;99.90;;;;;;5052403;28;20354;-51
2022/09/24 00:08:14;;;;;;;7.10;2.17;;;13.30;99.90;;;;;;5052575;28;20029;-49
2022/09/24 00:10:42;;;;;;;4.05;2.08;;;13.20;99.90;;;;;;5053126;28;20438;-50
2022/09/24 00:13:11;;;;;;;5.20;2.42;;;13.20;99.90;;;;;;5052869;28;20044;-49
2022/09/24 00:15:42;;;;;;;6.22;2.25;;;13.20;99.90;;;;;;5052604;28;20021;-49
2022/09/24 00:18:10;;;;;;;5.47;1.98;;;13.20;99.90;;;;;;5052867;28;20025;-55
2022/09/24 00:20:37;;;;;;;4.30;2.13;;;13.20;99.90;;;;;;5052692;28;20025;-48
2022/09/24 00:23:04;;;;;;;7.53;2.03;;;13.20;99.90;;;;;;5052699;28;20477;-46
2022/09/24 00:28:14;;;;;;;5.88;2.20;;;13.20;99.90;;;;;;5052901;28;20090;-43
2022/09/24 00:30:42;;;;;;;4.32;2.00;;;13.20;99.90;;;;;;5051937;28;20092;-53
2022/09/24 00:33:10;;;;;;;2.83;1.75;;;13.20;99.90;;;;;;5052548;28;20033;-47
2022/09/24 00:35:37;;;;;;;6.88;2.25;;;13.10;99.90;;;;;;5052278;28;20064;-50
2022/09/24 00:38:04;;;;;;;6.55;2.17;;;13.10;99.90;;;;;;5052409;28;20025;-48
2022/09/24 00:40:33;;;;;;;7.38;2.10;;;13.10;99.90;;;;;;5052259;28;20021;-54
2022/09/24 00:42:59;;;;;;;8.80;2.22;;;13.10;99.90;;;;;;5052323;28;20500;-49
2022/09/24 00:45:28;;;;;;;4.30;1.98;;;13.10;99.90;;;;;;5052293;28;20041;-50
2022/09/24 00:47:54;;;;;;;5.43;2.08;;;13.10;99.90;;;;;;5052378;28;20404;-47
2022/09/24 00:50:33;;;;;;;6.13;2.00;;;13.10;99.90;;;;;;5052394;28;20127;-45
2022/09/24 00:53:12;;;;;;;5.37;1.80;;;13.00;99.90;;;;;;5051909;28;20500;-50
2022/09/24 00:55:41;;;;;;;5.50;2.50;;;13.00;99.90;;;;;;5052003;28;20357;-44
2022/09/24 00:58:08;;;;;;;6.03;2.00;;;13.00;99.90;;;;;;5051862;28;20049;-49
2022/09/24 01:00:37;;;;;;;6.47;2.05;;;13.00;99.90;;;;;;5051718;28;20021;-48
2022/09/24 01:03:11;;;;;;;4.72;2.30;;;13.00;99.90;;;;;;5051315;28;20025;-45
2022/09/24 01:05:37;;;;;;;10.55;2.00;;;13.00;99.90;;;;;;5051610;28;20029;-43
2022/09/24 01:08:05;;;;;;;7.10;2.50;;;13.00;99.90;;;;;;5051523;28;20036;-52
2022/09/24 01:10:51;;;;;;;6.15;2.50;;;13.00;99.90;;;;;;5051742;28;20031;-47
2022/09/24 01:13:31;;;;;;;6.00;2.13;;;13.00;99.90;;;;;;5010891;28;20056;-48
2022/09/24 01:16:07;;;;;;;6.47;2.25;;;12.90;99.90;;;;;;5051747;28;20091;-47
2022/09/24 01:18:43;;;;;;;5.35;1.92;;;13.20;99.90;;;;;;5051504;28;20032;-45
2022/09/24 01:21:24;;;;;;;4.65;2.00;;;12.90;99.90;;;;;;5051595;28;20029;-46
2022/09/24 01:24:05;;;;;;;6.78;2.55;;;12.90;99.90;;;;;;5051422;28;20017;-46
2022/09/24 01:26:50;;;;;;;6.97;2.10;;;12.90;99.90;;;;;;5051483;28;20025;-47
2022/09/24 01:29:36;;;;;;;5.07;2.17;;;12.90;99.90;;;;;;5051541;28;20060;-45
2022/09/24 01:32:19;;;;;;;7.97;2.40;;;12.90;99.90;;;;;;5050870;28;20037;-43
2022/09/24 01:35:02;;;;;;;5.18;2.17;;;12.90;99.90;;;;;;5051131;28;20087;-48
2022/09/24 01:37:32;;;;;;;7.60;2.15;;;12.90;99.90;;;;;;5050862;28;20025;-43
2022/09/24 01:39:59;;;;;;;4.72;2.28;;;12.90;99.90;;;;;;5051115;28;20040;-47
2022/09/24 01:42:28;;;;;;;5.20;2.33;;;12.80;99.90;;;;;;5050505;28;20032;-45
2022/09/24 01:44:56;;;;;;;7.40;3.85;;;12.80;99.90;;;;;;5051314;28;20071;-48
2022/09/24 01:47:30;;;;;;;5.93;2.10;;;12.80;99.90;;;;;;5050989;28;20484;-44
2022/09/24 01:49:56;;;;;;;5.00;3.00;;;11.90;99.90;;;;;;5051050;28;20049;-46
2022/09/24 01:52:27;;;;;;;3.97;2.38;;;12.80;99.90;;;;;;5050923;28;20027;-45
2022/09/24 01:54:55;;;;;;;5.78;2.30;;;12.80;99.90;;;;;;5051081;28;20033;-46
2022/09/24 01:57:29;;;;;;;6.40;2.38;;;12.70;99.90;;;;;;5051039;28;20517;-44
2022/09/24 02:00:00;;;;;;;7.63;2.40;;;12.70;99.90;;;;;;5050897;28;20032;-48
2022/09/24 02:02:38;;;;;;;9.05;2.75;;;12.70;99.90;;;;;;5050857;28;20068;-43
2022/09/24 02:05:20;;;;;;;5.22;2.22;;;12.70;99.90;;;;;;5050903;28;20033;-45
2022/09/24 02:08:04;;;;;;;7.28;2.45;;;12.70;99.90;;;;;;5051045;28;20496;-47
2022/09/24 02:10:36;;;;;;;5.18;2.33;;;12.70;99.90;;;;;;5050856;28;20021;-54
2022/09/24 02:13:06;;;;;;;6.78;2.40;;;12.60;99.90;;;;;;5050777;28;20040;-42
2022/09/24 02:15:36;;;;;;;8.15;2.30;;;12.60;99.90;;;;;;5050563;28;20485;-45
2022/09/24 02:18:11;;;;;;;5.35;2.38;;;12.60;99.90;;;;;;5051183;28;20037;-48
2022/09/24 02:20:40;;;;;;;4.03;2.10;;;12.60;99.90;;;;;;5050553;28;20060;-47
2022/09/24 02:23:08;;;;;;;7.70;2.17;;;12.60;99.90;;;;;;5050854;28;20037;-46
2022/09/24 02:25:40;;;;;;;7.00;2.30;;;12.60;99.90;;;;;;5050637;28;20029;-43
2022/09/24 02:28:07;;;;;;;8.38;2.45;;;12.60;99.90;;;;;;5050792;28;20040;-45
2022/09/24 02:30:39;;;;;;;5.60;2.17;;;12.30;99.90;;;;;;5050133;28;20487;-45
2022/09/24 02:34:19;;;;;;;5.82;2.00;;;12.60;99.90;;;;;;5049948;28;20045;-44
2022/09/24 02:35:53;;;;;;;8.50;2.30;;;12.50;99.90;;;;;;5050474;28;20017;-47
2022/09/24 02:38:20;;;;;;;11.38;2.95;;;12.60;99.90;;;;;;5050657;28;20090;-49
2022/09/24 02:40:46;;;;;;;7.82;2.38;;;12.60;99.90;;;;;;5050523;28;20017;-44
2022/09/24 02:43:12;;;;;;;10.93;3.65;;;12.50;99.90;;;;;;5050764;28;20033;-44
2022/09/24 02:45:38;;;;;;;5.00;2.47;;;12.50;99.90;;;;;;5050490;28;20499;-43
2022/09/24 02:48:03;;;;;;;9.88;2.70;;;12.50;99.90;;;;;;5050028;28;20025;-44
2022/09/24 02:50:29;;;;;;;9.10;2.40;;;12.50;99.90;;;;;;5050678;28;20032;-45
2022/09/24 02:52:55;;;;;;;8.65;2.65;;;12.50;99.90;;;;;;5052108;28;20476;-45
2022/09/24 02:55:20;;;;;;;7.43;2.50;;;12.50;99.90;;;;;;5054304;28;20025;-43
2022/09/24 02:57:46;;;;;;;5.45;2.10;;;12.50;99.90;;;;;;5054028;28;20189;-46
2022/09/24 03:00:13;;;;;;;9.02;2.53;;;12.50;99.90;;;;;;5053909;28;20057;-42
2022/09/24 03:02:39;;;;;;;8.05;2.42;;;12.50;99.90;;;;;;5054212;28;20107;-46
2022/09/24 03:05:05;;;;;;;6.97;2.40;;;12.40;99.90;;;;;;5054073;28;20112;-42
2022/09/24 03:07:30;;;;;;;8.88;2.58;;;12.40;99.90;;;;;;5054037;28;20033;-48
2022/09/24 03:09:56;;;;;;;6.00;2.60;;;12.40;99.90;;;;;;5053765;28;20033;-46
2022/09/24 03:12:22;;;;;;;6.32;2.38;;;12.40;99.90;;;;;;5053960;28;20029;-47
2022/09/24 03:14:47;;;;;;;5.07;2.50;;;12.30;99.90;;;;;;5053903;28;20115;-52
2022/09/24 03:17:13;;;;;;;6.10;2.35;;;12.30;99.90;;;;;;5053911;28;20071;-49
2022/09/24 03:19:39;;;;;;;5.72;2.60;;;12.30;99.90;;;;;;5054024;28;20104;-47
2022/09/24 03:22:04;;;;;;;5.65;2.33;;;12.10;99.90;;;;;;5053704;28;20139;-50
2022/09/24 03:24:30;;;;;;;9.57;2.38;;;12.20;99.90;;;;;;5053744;28;20369;-44
2022/09/24 03:26:56;;;;;;;4.18;2.33;;;12.20;99.90;;;;;;5053549;28;20032;-43
2022/09/24 03:30:58;;;;;;;7.50;2.42;;;12.20;99.90;;;;;;5053773;28;20104;-43
2022/09/24 03:32:07;;;;;;;5.03;2.30;;;12.20;99.90;;;;;;5048767;28;20041;-50
2022/09/24 03:34:33;;;;;;;10.02;2.70;;;12.20;99.90;;;;;;5053102;28;20037;-42
2022/09/24 03:36:58;;;;;;;7.70;2.50;;;12.20;99.90;;;;;;5053464;28;20107;-41
2022/09/24 03:39:24;;;;;;;8.82;2.75;;;12.20;99.90;;;;;;5052244;28;20040;-42
2022/09/24 03:41:50;;;;;;;5.85;2.40;;;12.20;99.90;;;;;;5053852;28;20530;-43
2022/09/24 03:44:15;;;;;;;10.15;2.85;;;12.20;99.90;;;;;;5053065;28;20121;-44
2022/09/24 03:46:41;;;;;;;8.98;2.78;;;12.20;99.90;;;;;;5053216;28;20025;-42
2022/09/24 03:49:07;;;;;;;8.48;2.97;;;12.20;99.90;;;;;;5053070;28;20614;-44
2022/09/24 03:51:33;;;;;;;5.28;2.63;;;12.10;99.90;;;;;;5053432;28;20116;-46
2022/09/24 03:53:58;;;;;;;7.13;3.13;;;12.10;99.90;;;;;;5053249;28;20424;-46
2022/09/24 03:56:24;;;;;;;6.50;2.92;;;12.10;99.90;;;;;;5053184;28;20111;-49
2022/09/24 03:58:49;;;;;;;6.75;3.10;;;12.00;99.90;;;;;;5053147;28;20507;-48
2022/09/24 04:01:19;;;;;;;7.15;3.13;;;12.00;99.90;;;;;;5052396;28;20021;-45
2022/09/24 04:03:46;;;;;;;7.75;3.90;;;12.00;99.90;;;;;;5051800;28;20104;-52
2022/09/24 04:06:12;;;;;;;8.35;3.60;;;11.80;99.90;;;;;;5052482;28;20104;-51
2022/09/24 04:08:37;;;;;;;9.82;3.83;;;11.90;99.90;;;;;;5051569;28;20116;-46
2022/09/24 04:11:03;;;;;;;7.10;3.75;;;11.90;99.90;;;;;;5052960;28;20111;-46
2022/09/24 04:13:29;;;;;;;9.07;3.92;;;11.90;99.90;;;;;;5049417;28;20116;-45
2022/09/24 04:15:55;;;;;;;7.78;3.95;;;11.90;99.90;;;;;;5045474;28;20047;-47
2022/09/24 04:18:20;;;;;;;9.80;4.13;;;11.80;99.90;;;;;;5046931;28;20037;-45
2022/09/24 04:20:46;;;;;;;9.00;3.88;;;11.90;99.90;;;;;;5050176;28;20021;-42
2022/09/24 04:23:12;;;;;;;9.00;3.85;;;11.80;99.90;;;;;;5049902;28;20032;-47
2022/09/24 04:25:39;;;;;;;13.57;4.65;;;11.80;99.90;;;;;;5052668;28;20112;-50
2022/09/24 04:28:07;;;;;;;11.40;4.18;;;11.80;99.90;;;;;;5051290;28;20120;-47
2022/09/24 04:30:34;;;;;;;6.38;4.30;;;11.70;99.90;;;;;;5047590;28;20017;-45
2022/09/24 04:33:01;;;;;;;9.32;4.20;;;11.70;99.90;;;;;;5041458;28;20088;-45
2022/09/24 04:35:29;;;;;;;9.02;4.13;;;11.70;99.90;;;;;;5052159;28;20028;-43
2022/09/24 04:37:55;;;;;;;13.57;4.45;;;11.70;99.90;;;;;;5052372;28;20428;-50
2022/09/24 04:40:21;;;;;;;8.52;4.68;;;11.60;99.90;;;;;;5052172;28;20407;-44
2022/09/24 04:42:47;;;;;;;9.10;4.38;;;11.60;99.90;;;;;;5050500;28;20021;-45
2022/09/24 04:45:16;;;;;;;11.50;4.53;;;11.60;99.90;;;;;;5050009;28;20037;-44
2022/09/24 04:47:42;;;;;;;10.00;4.50;;;11.50;99.90;;;;;;5046825;28;20480;-45
2022/09/24 04:50:10;;;;;;;12.05;4.97;;;11.50;99.90;;;;;;5045681;28;20056;-44
2022/09/24 04:52:36;;;;;;;8.05;4.30;;;11.40;99.90;;;;;;5052152;28;20178;-44
2022/09/24 04:55:02;;;;;;;13.27;4.90;;;11.50;99.90;;;;;;5044984;28;20076;-44
2022/09/24 04:57:33;;;;;;;6.90;4.15;;;11.40;99.90;;;;;;5059247;28;20024;-45
2022/09/24 04:59:59;;;;;;;10.68;4.55;;;11.40;99.90;;;;;;5050659;28;20021;-45
2022/09/24 05:02:25;;;;;;;9.52;4.35;;;11.40;99.90;;;;;;5050494;28;20170;-44
2022/09/24 05:04:50;;;;;;;8.48;4.30;;;11.40;99.90;;;;;;5051659;28;20396;-45
2022/09/24 05:07:16;;;;;;;14.82;5.15;;;11.30;99.90;;;;;;5050267;28;20102;-47
2022/09/24 05:09:42;;;;;;;8.48;4.80;;;11.30;99.90;;;;;;5051690;28;20031;-44
2022/09/24 05:12:07;;;;;;;9.07;4.65;;;11.30;99.90;;;;;;5049898;28;20021;-44
2022/09/24 05:14:33;;;;;;;11.00;4.95;;;11.20;99.90;;;;;;5048355;28;20029;-45
2022/09/24 05:16:59;;;;;;;11.90;4.78;;;11.30;99.90;;;;;;5048427;28;20032;-43
2022/09/24 05:19:24;;;;;;;10.23;5.25;;;11.20;99.90;;;;;;5049613;28;21673;-45
2022/09/24 05:21:50;;;;;;;9.15;4.85;;;11.20;99.90;;;;;;5049516;28;20431;-46
2022/09/24 05:24:15;;;;;;;10.02;5.15;;;11.20;99.90;;;;;;5049213;28;20029;-45
2022/09/24 05:29:26;;;;;;;11.10;5.20;;;11.20;99.90;;;;;;5046432;28;20071;-46
2022/09/24 05:31:51;;;;;;;11.30;4.90;;;11.20;99.90;;;;;;5051329;28;20049;-45
2022/09/24 05:34:17;;;;;;;15.27;5.93;;;11.20;99.90;;;;;;5050979;28;20373;-47
2022/09/24 05:36:43;;;;;;;13.52;5.75;;;11.20;99.90;;;;;;5049788;28;20100;-45
2022/09/24 05:39:10;;;;;;;11.68;6.00;;;11.30;99.90;;;;;;5050926;28;20506;-44
2022/09/24 05:41:37;;;;;;;9.30;5.30;;;11.30;99.90;;;;;;5050866;28;20104;-47
2022/09/24 05:44:03;;;;;;;11.77;5.53;;;11.30;99.90;;;;;;5050874;28;20029;-44
2022/09/24 05:46:28;;;;;;;11.45;5.28;;;11.30;99.90;;;;;;5049709;28;20033;-47
2022/09/24 05:48:54;;;;;;;9.40;4.85;;;11.30;99.90;;;;;;5050756;28;20040;-47
2022/09/24 05:51:20;;;;;;;13.00;5.70;;;11.30;99.90;;;;;;5050770;28;20037;-49
2022/09/24 05:53:46;;;;;;;11.68;5.32;;;11.30;99.90;;;;;;5050602;28;20033;-43
2022/09/24 05:56:11;;;;;;;10.50;5.13;;;11.40;99.90;;;;;;5050760;28;20021;-44
2022/09/24 05:58:37;;;;;;;9.52;5.50;;;11.30;99.90;;;;;;5050699;28;20441;-44
2022/09/24 06:01:03;;;;;;;11.18;5.53;;;11.30;99.90;;;;;;5049825;28;20020;-49
2022/09/24 06:03:30;;;;;;;12.15;5.18;;;11.40;99.90;;;;;;5050556;28;20028;-49
2022/09/24 06:05:58;;;;;;;11.10;5.55;;;11.40;99.90;;;;;;5050254;28;20476;-43
2022/09/24 06:08:24;;;;;;;9.63;5.60;;;11.50;99.90;;;;;;5050276;28;20028;-45
2022/09/24 06:10:49;;;;;;;8.13;5.30;;;11.50;99.90;;;;;;5049925;28;20025;-47
2022/09/24 06:13:17;;;;;;;9.63;5.03;;;11.60;99.90;;;;;;5050321;28;20044;-45
2022/09/24 06:15:43;;;;;;;13.27;5.18;;;11.70;99.90;;;;;;5050610;28;20036;-47
2022/09/24 06:18:10;;;;;;;9.43;5.55;;;11.70;99.90;;;;;;5050501;28;20021;-49
2022/09/24 06:20:36;;;;;;;9.30;4.93;;;11.80;99.90;;;;;;5050311;28;20033;-44
2022/09/24 06:23:02;;;;;;;12.90;4.85;;;11.80;99.90;;;;;;5050445;28;20480;-44
2022/09/24 06:25:29;;;;;;;10.27;4.65;;;11.90;99.90;;;;;;5050518;28;20033;-46
2022/09/24 06:27:59;;;;;;;12.57;4.78;;;12.00;99.90;;;;;;5052459;28;20037;-44
2022/09/24 06:30:30;;;;;;;10.07;4.68;;;12.10;99.90;;;;;;5054612;28;20564;-44
2022/09/24 06:33:10;;;;;;;9.65;4.72;;;12.20;99.90;;;;;;5054364;28;20035;-50
2022/09/24 06:35:42;;;;;;;7.68;4.13;;;12.20;99.90;;;;;;5054639;28;20032;-56
2022/09/24 06:38:10;;;;;;;8.20;3.95;;;12.30;99.90;;;;;;5054037;28;20025;-51
2022/09/24 06:40:37;;;;;;;7.47;4.32;;;12.30;99.90;;;;;;5054395;28;20021;-54
2022/09/24 06:43:08;;;;;;;6.22;3.92;;;12.50;99.90;;;;;;5054262;28;20025;-43
2022/09/24 06:45:33;;;;;;;8.50;3.85;;;12.60;99.90;;;;;;5054183;28;20025;-49
2022/09/24 06:48:01;;;;;;;7.50;3.80;;;12.70;99.90;;;;;;5054098;28;20051;-51
2022/09/24 06:50:28;;;;;;;8.07;3.75;;;12.80;99.90;;;;;;5053288;28;20117;-46
2022/09/24 06:52:55;;;;;;;13.48;4.60;;;13.00;99.90;;;;;;5053770;28;20468;-48
2022/09/24 06:55:21;;;;;;;9.90;4.38;;;13.10;99.90;;;;;;5053993;28;20064;-44
2022/09/24 06:57:46;;;;;;;10.35;4.32;;;13.20;99.90;;;;;;5054031;28;20407;-49
2022/09/24 07:00:13;;;;;;;11.20;4.95;;;13.30;99.90;;;;;;5054088;28;20079;-49
2022/09/24 07:02:40;;;;;;;11.40;4.70;;;13.30;99.90;;;;;;5053561;28;20025;-47
2022/09/24 07:05:06;;;;;;;13.80;5.28;;;13.40;99.90;;;;;;5054150;28;20025;-43
2022/09/24 07:07:33;;;;;;;8.25;4.65;;;13.40;99.90;;;;;;5053743;28;20033;-47
2022/09/24 07:10:09;;;;;;;8.70;4.78;;;13.50;99.90;;;;;;5053879;28;20059;-44
2022/09/24 07:12:35;;;;;;;9.90;4.68;;;13.70;99.90;;;;;;5053068;28;20033;-44
2022/09/24 07:15:01;;;;;;;7.03;4.20;;;13.80;99.90;;;;;;5053842;28;20488;-49
2022/09/24 07:17:28;;;;;;;9.77;4.68;;;14.10;99.90;;;;;;5053532;28;20025;-46
2022/09/24 07:19:54;;;;;;;7.45;4.85;;;14.30;99.90;;;;;;5052240;28;20071;-44
2022/09/24 07:22:20;;;;;;;9.07;4.38;;;14.60;99.90;;;;;;5053427;28;20025;-49
2022/09/24 07:24:47;;;;;;;8.55;4.45;;;14.80;99.90;;;;;;5053316;28;20025;-46
2022/09/24 07:27:13;;;;;;;7.95;4.50;;;14.70;99.90;;;;;;5053388;28;20032;-48
2022/09/24 07:29:39;;;;;;;7.18;4.75;;;14.60;99.90;;;;;;5052032;28;20405;-52
2022/09/24 07:32:05;;;;;;;10.88;4.93;;;14.60;99.90;;;;;;5051670;28;20105;-43
2022/09/24 07:34:31;;;;;;;7.13;3.92;;;14.50;99.90;;;;;;5051310;28;20408;-56
2022/09/24 07:36:57;;;;;;;11.27;4.75;;;14.30;99.90;;;;;;5051543;28;20103;-44
2022/09/24 07:39:24;;;;;;;10.07;4.28;;;14.30;99.90;;;;;;5050024;28;20178;-48
2022/09/24 07:41:51;;;;;;;6.97;3.70;;;14.20;99.90;;;;;;5051154;28;20024;-45
2022/09/24 07:44:19;;;;;;;6.75;3.97;;;14.30;99.90;;;;;;5052376;28;20029;-44
2022/09/24 07:46:47;;;;;;;9.50;4.18;;;14.90;99.90;;;;;;5053018;28;20029;-46
2022/09/24 07:49:12;;;;;;;8.63;3.65;;;14.60;99.90;;;;;;5052779;28;20053;-48
2022/09/24 07:51:38;;;;;;;10.80;3.85;;;14.70;99.90;;;;;;5053203;28;20438;-44
2022/09/24 07:54:04;;;;;;;7.30;3.35;;;14.70;99.90;;;;;;5052858;28;20041;-44
2022/09/24 07:56:31;;;;;;;12.82;3.70;;;14.90;99.90;;;;;;5052988;28;20033;-43
2022/09/24 07:58:56;;;;;;;9.48;3.72;;;15.10;99.90;;;;;;5052914;28;20033;-45
2022/09/24 08:01:23;;;;;;;6.05;3.08;;;15.10;99.90;;;;;;5052990;28;20028;-50
2022/09/24 08:03:50;;;;;;;7.53;3.05;;;15.40;99.90;;;;;;5052914;28;20048;-46
2022/09/24 08:06:16;;;;;;;6.15;3.03;;;15.70;99.90;;;;;;5052921;28;20456;-47
2022/09/24 08:08:42;;;;;;;6.25;2.85;;;16.30;99.90;;;;;;5052993;28;20436;-49
2022/09/24 08:11:11;;;;;;;8.23;3.00;;;16.70;99.90;;;;;;5052670;28;20025;-46
2022/09/24 08:13:37;;;;;;;6.00;2.40;;;16.80;99.90;;;;;;5052593;28;20045;-44
2022/09/24 08:16:04;;;;;;;5.35;2.70;;;17.00;99.90;;;;;;5052593;28;20031;-50
2022/09/24 08:18:31;;;;;;;7.68;2.90;;;17.10;99.90;;;;;;5052739;28;20021;-47
2022/09/24 08:20:58;;;;;;;4.78;2.75;;;17.00;99.90;;;;;;5052146;28;20491;-44
2022/09/24 08:23:24;;;;;;;7.82;2.90;;;17.20;99.90;;;;;;5051993;28;20036;-45
2022/09/24 08:25:53;;;;;;;7.38;3.20;;;17.20;99.90;;;;;;5052418;28;20104;-48
2022/09/24 08:28:19;;;;;;;4.72;2.70;;;17.40;99.90;;;;;;5052189;28;20409;-49
2022/09/24 08:30:44;;;;;;;6.53;2.70;;;17.40;99.90;;;;;;5052221;28;20114;-44
2022/09/24 08:33:10;;;;;;;7.57;2.90;;;17.60;99.90;;;;;;5052013;28;20040;-45
2022/09/24 08:35:38;;;;;;;6.70;2.92;;;17.70;99.90;;;;;;5050961;28;20033;-44
2022/09/24 08:38:04;;;;;;;6.43;3.38;;;17.60;99.90;;;;;;5052037;28;20057;-49
2022/09/24 08:40:35;;;;;;;7.22;3.22;;;17.80;99.90;;;;;;5051194;28;20098;-53
2022/09/24 08:43:19;;;;;;;5.72;3.22;;;17.80;99.90;;;;;;5052004;28;20017;-46
2022/09/24 08:48:39;;;;;;;7.88;3.70;;;18.30;99.90;;;;;;5050542;28;20124;-48
2022/09/24 08:51:10;;;;;;;6.55;3.17;;;18.60;99.90;;;;;;5051918;28;20033;-44
2022/09/24 08:54:07;;;;;;;11.02;3.33;;;18.80;99.90;;;;;;5051794;28;20044;-46
2022/09/24 08:56:36;;;;;;;8.88;2.90;;;19.10;99.90;;;;;;5052016;28;20400;-44
2022/09/24 08:59:29;;;;;;;6.10;2.60;;;19.30;99.90;;;;;;5051955;28;20056;-47
2022/09/24 09:01:58;;;;;;;6.07;2.65;;;19.90;99.90;;;;;;5051901;28;20055;-45
2022/09/24 09:04:42;;;;;;;5.63;2.63;;;20.20;99.90;;;;;;5051959;28;20052;-47
2022/09/24 09:07:21;;;;;;;4.90;2.33;;;20.60;99.90;;;;;;5051751;28;20031;-46
2022/09/24 09:10:02;;;;;;;6.03;2.38;;;21.10;99.90;;;;;;5051877;28;20025;-45
2022/09/24 09:12:41;;;;;;;5.45;2.63;;;21.30;99.90;;;;;;5051669;28;20091;-47
2022/09/24 09:15:19;;;;;;;6.47;2.20;;;21.40;99.90;;;;;;5051675;28;20040;-52
2022/09/24 09:17:50;;;;;;;4.80;2.20;;;21.40;99.90;;;;;;5051401;28;20727;-49
2022/09/24 09:20:25;;;;;;;3.50;2.03;;;21.50;99.20;;;;;;5043396;28;20510;-47
2022/09/24 09:22:52;;;;;;;8.02;3.15;;;21.20;99.90;;;;;;5049758;28;20028;-48
2022/09/24 09:25:23;;;;;;;5.82;2.20;;;20.90;99.90;;;;;;5043372;28;20025;-45
2022/09/24 09:27:59;;;;;;;6.20;2.13;;;20.70;99.80;;;;;;5051209;28;20388;-45
2022/09/24 09:30:26;;;;;;;7.35;2.40;;;20.40;99.90;;;;;;5051417;28;20492;-51
2022/09/24 09:33:58;;;;;;;7.35;2.65;;;20.40;99.90;;;;;;5051182;28;20087;-45
2022/09/24 09:36:30;;;;;;;6.68;2.17;;;20.30;99.90;;;;;;4956494;28;20050;-46
2022/09/24 09:39:21;;;;;;;9.02;2.55;;;20.20;99.90;;;;;;5051375;28;20083;-49
2022/09/24 09:42:05;;;;;;;5.03;2.20;;;21.40;99.90;;;;;;5050960;28;20399;-44
2022/09/24 09:44:38;;;;;;;3.47;1.90;;;22.50;98.90;;;;;;5051181;28;20083;-48
2022/09/24 09:47:42;;;;;;;5.40;2.17;;;23.10;97.20;;;;;;5050945;28;20025;-45
2022/09/24 09:50:43;;;;;;;5.18;1.98;;;23.80;95.90;;;;;;4988151;28;20133;-49
2022/09/24 09:53:26;;;;;;;4.22;2.22;;;24.10;95.70;;;;;;5050002;28;20098;-45
2022/09/24 09:56:01;;;;;;;5.28;2.17;;;23.40;95.60;;;;;;5050161;28;20024;-45
2022/09/24 09:58:30;;;;;;;2.90;1.70;;;23.50;96.60;;;;;;5051048;28;20117;-53
2022/09/24 10:01:30;;;;;;;6.15;2.10;;;24.80;94.60;;;;;;5051054;28;20032;-48
2022/09/24 10:04:03;;;;;;;5.45;2.45;;;25.80;92.40;;;;;;5050552;28;20033;-46
2022/09/24 10:06:32;;;;;;;6.20;2.13;;;25.60;91.60;;;;;;5050626;28;20061;-49
2022/09/24 10:09:18;;;;;;;4.40;2.20;;;25.00;92.10;;;;;;5050771;28;20025;-47
2022/09/24 10:11:45;;;;;;;4.72;2.22;;;24.60;92.40;;;;;;5050659;28;20472;-50
2022/09/24 10:14:13;;;;;;;6.50;2.72;;;24.30;92.30;;;;;;5050692;28;20073;-44
2022/09/24 10:16:42;;;;;;;4.93;2.42;;;24.00;93.80;;;;;;5050653;28;20056;-44
2022/09/24 10:19:35;;;;;;;9.23;3.28;;;24.60;93.70;;;;;;5050250;28;20044;-44
2022/09/24 10:22:22;;;;;;;7.80;3.15;;;24.80;91.20;;;;;;5047945;28;20056;-47
2022/09/24 10:24:49;;;;;;;7.25;3.10;;;24.80;91.30;;;;;;5050469;28;20009;-47
2022/09/24 10:27:35;;;;;;;6.82;2.90;;;24.30;90.60;;;;;;5049973;28;20025;-50
2022/09/24 10:32:58;;;;;;;5.85;2.83;;;22.80;94.20;;;;;;5050500;28;20040;-48
2022/09/24 10:35:34;;;;;;;6.53;2.75;;;22.40;93.70;;;;;;5050645;28;20476;-52
2022/09/24 10:38:01;;;;;;;7.47;3.40;;;22.40;93.50;;;;;;5049538;28;20085;-44
2022/09/24 10:40:38;;;;;;;6.65;3.10;;;23.10;95.00;;;;;;5049850;28;20102;-47
2022/09/24 10:43:05;;;;;;;5.45;3.10;;;23.90;94.50;;;;;;5049216;28;20056;-45
2022/09/24 10:45:58;;;;;;;7.05;3.00;;;24.40;92.00;;;;;;5049961;28;20483;-51
2022/09/24 10:48:34;;;;;;;4.63;2.80;;;24.70;92.20;;;;;;5049134;28;20047;-48
2022/09/24 10:51:31;;;;;;;5.88;3.03;;;24.90;93.20;;;;;;5048768;28;20366;-46
2022/09/24 10:54:17;;;;;;;7.05;2.92;;;24.80;91.90;;;;;;5049853;28;20044;-50
2022/09/24 10:56:52;;;;;;;7.07;2.78;;;23.90;91.30;;;;;;5049825;28;20029;-52
2022/09/24 10:59:59;;;;;;;10.77;3.22;;;23.90;92.30;;;;;;5049808;28;20035;-48
2022/09/24 11:02:31;;;;;;;5.50;2.65;;;23.70;92.80;;;;;;5049057;28;20029;-50
2022/09/24 11:05:03;;;;;;;6.13;2.63;;;23.40;92.70;;;;;;5049628;28;20017;-46
2022/09/24 11:07:53;;;;;;;6.18;2.50;;;23.30;93.70;;;;;;5049379;28;20021;-49
2022/09/24 11:11:10;;;;;;;4.82;2.35;;;23.20;94.30;;;;;;5048855;28;20476;-50
2022/09/24 11:14:12;;;;;;;5.93;2.55;;;22.90;93.30;;;;;;5014133;28;20106;-50
2022/09/24 11:17:04;;;;;;;4.57;2.20;;;22.20;93.00;;;;;;5051841;28;20025;-51
2022/09/24 11:20:14;;;;;;;7.18;2.33;;;21.80;94.40;;;;;;5029685;28;20029;-44
2022/09/24 11:23:10;;;;;;;7.75;2.10;;;21.40;94.70;;;;;;5049863;28;20040;-43
2022/09/24 11:26:22;;;;;;;8.95;2.50;;;20.90;96.40;;;;;;5051352;28;20032;-43
2022/09/24 11:29:02;;;;;;;4.88;1.95;;;20.90;96.60;;;;;;5053173;28;20037;-50
2022/09/24 11:31:53;;;;;;;4.25;2.05;;;21.20;95.80;;;;;;5052713;28;20090;-52
2022/09/24 11:34:50;;;;;;;5.13;2.42;;;20.80;95.80;;;;;;5052872;28;20037;-45
2022/09/24 11:37:57;;;;;;;6.60;2.58;;;21.20;97.00;;;;;;5051118;28;20194;-46
2022/09/24 11:40:23;;;;;;;4.75;2.03;;;21.30;98.10;;;;;;5051499;28;20056;-47
2022/09/24 11:43:17;;;;;;;6.75;2.20;;;21.10;96.30;;;;;;5052867;28;20383;-46
2022/09/24 11:46:09;;;;;;;7.57;2.20;;;21.00;96.60;;;;;;5042470;28;20140;-44
2022/09/24 11:48:53;;;;;;;6.50;1.73;;;20.90;97.00;;;;;;5052829;28;20044;-53
2022/09/24 11:51:53;;;;;;;5.78;1.80;;;20.90;97.50;;;;;;5053102;28;20186;-48
2022/09/24 11:54:37;;;;;;;6.22;2.22;;;21.30;98.10;;;;;;5039171;28;20033;-47
2022/09/24 11:57:25;;;;;;;4.47;1.50;;;21.70;96.40;;;;;;5052783;28;20484;-47
2022/09/24 12:00:08;;;;;;;5.80;1.65;;;22.50;96.00;;;;;;5053028;28;20480;-46
2022/09/24 12:02:44;;;;;;;3.65;1.40;;;23.60;94.10;;;;;;5052670;28;20434;-44
2022/09/24 12:05:31;;;;;;;5.10;1.33;;;24.60;92.00;;;;;;5052955;28;20073;-44
2022/09/24 12:08:04;;;;;;;3.38;1.40;;;25.00;92.40;;;;;;5039347;28;20036;-44
2022/09/24 12:10:47;;;;;;;2.58;1.20;;;24.20;91.40;;;;;;5052850;28;20032;-46
2022/09/24 12:13:26;;;;;;;5.65;1.70;;;23.60;90.10;;;;;;5052235;28;20051;-47
2022/09/24 12:16:02;;;;;;;3.33;1.20;;;22.90;92.60;;;;;;5051122;28;20055;-54
2022/09/24 12:18:29;;;;;;;2.45;1.10;;;22.30;93.50;;;;;;5052700;28;20507;-44
2022/09/24 12:21:03;;;;;;;3.13;1.13;;;22.00;92.80;;;;;;5052204;28;20024;-45
2022/09/24 12:23:34;;;;;;;2.72;1.00;;;21.80;93.30;;;;;;5052587;28;20123;-49
2022/09/24 12:26:04;;;;;;;2.72;0.88;;;21.40;93.20;;;;;;5051646;28;20032;-50
2022/09/24 12:35:00;;;;;;;4.82;1.15;;;20.90;95.30;;;;;;5052417;28;20103;-46
2022/09/24 12:37:38;;;;;;;2.80;1.10;;;20.90;96.10;;;;;;5049055;28;20049;-51
2022/09/24 12:40:34;;;;;;;8.77;1.30;;;20.80;94.40;;;;;;5050621;28;20032;-46
2022/09/24 12:43:04;;;;;;;2.97;1.00;;;20.70;94.50;;;;;;5051425;28;20024;-49
2022/09/24 12:45:32;;;;;;;3.33;1.25;;;20.80;95.20;;;;;;5049709;28;20048;-55
2022/09/24 12:48:00;;;;;;;2.28;0.80;;;20.80;95.20;;;;;;5051221;28;20021;-50
2022/09/24 12:50:29;;;;;;;2.13;0.98;;;21.00;95.20;;;;;;5050757;28;20098;-53
2022/09/24 12:52:55;;;;;;;3.90;0.98;;;20.70;94.10;;;;;;5051244;28;20108;-53
2022/09/24 12:55:25;;;;;;;3.55;1.27;;;20.90;94.10;;;;;;5051412;28;20111;-43
2022/09/24 12:58:05;;;;;;;4.47;0.90;;;21.00;95.30;;;;;;5049522;28;20067;-48
2022/09/24 13:00:32;;;;;;;3.22;1.48;;;21.10;93.90;;;;;;5051652;28;20443;-52
2022/09/24 13:02:59;;;;;;;3.53;1.15;;;21.30;93.80;;;;;;5051754;28;20033;-45
2022/09/24 13:05:26;;;;;;;2.13;1.00;;;21.50;94.70;;;;;;5051582;28;20036;-53
2022/09/24 13:07:59;;;;;;;3.42;1.30;;;21.70;94.80;;;;;;5051558;28;20110;-53
2022/09/24 13:10:34;;;;;;;5.13;1.25;;;21.50;93.30;;;;;;5051701;28;20636;-50
2022/09/24 13:13:00;;;;;;;2.60;0.80;;;21.50;93.60;;;;;;5051328;28;20025;-47
2022/09/24 13:15:31;;;;;;;3.03;1.00;;;21.30;93.40;;;;;;5051530;28;20132;-49
2022/09/24 13:18:23;;;;;;;2.78;1.00;;;21.30;93.20;;;;;;5050848;28;20025;-45
2022/09/24 13:21:04;;;;;;;3.65;0.93;;;21.30;93.50;;;;;;5051065;28;20037;-56
2022/09/24 13:23:36;;;;;;;3.47;0.77;;;21.40;94.10;;;;;;5050910;28;20039;-46
2022/09/24 13:26:05;;;;;;;3.13;0.85;;;21.10;93.00;;;;;;5050868;28;20025;-45
2022/09/24 13:28:57;;;;;;;2.28;0.90;;;21.10;93.90;;;;;;5050905;28;20338;-47